Time;durP1;ratioP1;P1;durP2;ratioP2;P2;SDS_P1;SDS_P2;PMS_P1;PMS_P2;Temp;Humidity;BMP_temperature;BMP_pressure;BME280_temperature;BME280_humidity;BME280_pressure;Samples;Min_cycle;Max_cycle;Signal;HPM_P1;HPM_P2
2021/05/25 00:02:27;;;;;;;5.07;2.28;;;;;;;17.17;59.52;99596.37;4345344;33;34730;-86
2021/05/25 00:04:55;;;;;;;2.10;1.90;;;;;;;17.08;59.65;99581.78;4345583;33;35900;-85
2021/05/25 00:07:22;;;;;;;4.47;2.10;;;;;;;17.37;58.81;99583.50;4345707;33;33864;-86
2021/05/25 00:09:51;;;;;;;4.95;1.92;;;;;;;17.37;58.69;99578.25;4345548;33;33987;-86
2021/05/25 00:12:19;;;;;;;3.87;2.10;;;;;;;17.32;58.61;99572.28;4345551;33;35080;-85
2021/05/25 00:14:47;;;;;;;3.75;1.90;;;;;;;17.37;58.80;99565.13;4345554;33;35843;-85
2021/05/25 00:17:14;;;;;;;2.75;2.08;;;;;;;17.31;58.72;99581.06;4345304;33;35155;-85
2021/05/25 00:19:42;;;;;;;3.67;2.55;;;;;;;17.60;57.93;99599.47;4333170;33;33489;-85
2021/05/25 00:22:12;;;;;;;3.20;1.80;;;;;;;17.54;57.90;99594.41;4333344;33;34274;-86
2021/05/25 00:24:40;;;;;;;2.45;1.87;;;;;;;17.62;57.87;99594.12;4333085;33;35176;-86
2021/05/25 00:27:10;;;;;;;1.80;1.67;;;;;;;17.67;57.96;99592.22;4333149;33;34576;-86
2021/05/25 00:29:37;;;;;;;3.67;2.17;;;;;;;17.70;57.82;99600.88;4334276;33;33264;-87
2021/05/25 00:32:07;;;;;;;2.35;1.65;;;;;;;17.66;57.94;99601.91;4345407;33;33734;-85
2021/05/25 00:34:34;;;;;;;2.12;1.92;;;;;;;17.72;57.67;99599.06;4345350;33;35172;-85
2021/05/25 00:37:02;;;;;;;4.40;1.98;;;;;;;17.77;57.68;99599.78;4345026;33;34308;-85
2021/05/25 00:39:30;;;;;;;3.35;1.70;;;;;;;17.52;58.31;99585.69;4332976;33;34126;-85
2021/05/25 00:41:58;;;;;;;4.78;2.15;;;;;;;17.55;58.12;99593.47;4333004;33;33749;-85
2021/05/25 00:44:25;;;;;;;4.47;1.65;;;;;;;17.46;58.49;99588.47;4345058;33;33923;-85
2021/05/25 00:46:53;;;;;;;3.45;2.20;;;;;;;17.48;58.36;99579.63;4332955;33;34193;-85
2021/05/25 00:49:21;;;;;;;4.45;2.65;;;;;;;17.58;58.01;99572.34;4345411;33;34480;-85
2021/05/25 00:51:58;;;;;;;3.80;2.58;;;;;;;17.52;58.37;99577.78;4344401;33;33926;-86
2021/05/25 00:54:26;;;;;;;3.90;2.33;;;;;;;17.56;58.35;99585.56;4333890;33;36002;-85
2021/05/25 00:56:55;;;;;;;4.28;2.60;;;;;;;17.68;58.03;99599.22;4332955;33;34299;-85
2021/05/25 00:59:23;;;;;;;3.35;2.47;;;;;;;17.61;58.11;99556.47;4332954;33;34123;-86
2021/05/25 01:01:51;;;;;;;5.72;2.20;;;;;;;17.58;58.17;99583.75;4344664;33;33854;-85
2021/05/25 01:04:19;;;;;;;5.57;2.00;;;;;;;17.63;57.96;99609.03;4332762;33;34297;-85
2021/05/25 01:06:47;;;;;;;2.75;1.73;;;;;;;17.65;58.19;99587.03;4345152;33;34421;-86
2021/05/25 01:09:17;;;;;;;2.40;1.92;;;;;;;17.42;59.02;99565.84;4333044;33;33306;-86
2021/05/25 01:11:45;;;;;;;2.83;1.50;;;;;;;17.27;59.26;99587.31;4333985;33;34785;-86
2021/05/25 01:14:13;;;;;;;2.92;1.58;;;;;;;17.39;58.74;99595.72;4343896;33;34396;-85
2021/05/25 01:16:42;;;;;;;3.60;2.12;;;;;;;17.46;58.55;99589.34;4345030;33;34149;-86
2021/05/25 01:19:14;;;;;;;4.10;1.73;;;;;;;17.52;58.69;99589.16;4333927;33;33326;-86
2021/05/25 01:21:42;;;;;;;4.03;1.95;;;;;;;17.69;58.26;99607.03;4345007;33;33860;-86
2021/05/25 01:24:10;;;;;;;2.87;1.62;;;;;;;17.62;58.60;99605.53;4345170;33;35277;-86
2021/05/25 01:26:38;;;;;;;3.47;1.75;;;;;;;17.57;58.46;99600.41;4334160;33;34435;-86
2021/05/25 01:29:06;;;;;;;4.18;1.70;;;;;;;17.62;58.34;99610.78;4345147;33;33638;-86
2021/05/25 01:31:38;;;;;;;4.60;1.40;;;;;;;17.66;58.75;99620.31;4344586;33;34792;-86
2021/05/25 01:34:12;;;;;;;3.55;1.55;;;;;;;17.68;58.65;99604.47;4344264;33;35508;-86
2021/05/25 01:36:44;;;;;;;6.82;2.28;;;;;;;17.76;58.64;99581.44;4344840;33;34773;-86
2021/05/25 01:39:13;;;;;;;2.30;1.65;;;;;;;17.72;58.83;99564.88;4344912;33;33576;-86
2021/05/25 01:41:42;;;;;;;5.07;1.62;;;;;;;17.68;58.80;99550.13;4332771;33;35201;-86
2021/05/25 01:44:10;;;;;;;1.60;1.30;;;;;;;17.77;58.63;99568.22;4344629;33;34469;-87
2021/05/25 01:46:45;;;;;;;3.50;1.75;;;;;;;17.75;58.75;99575.31;4344749;33;33988;-86
2021/05/25 01:49:18;;;;;;;3.03;1.75;;;;;;;17.82;58.57;99561.03;4344725;33;33293;-86
2021/05/25 01:51:50;;;;;;;4.32;1.50;;;;;;;17.72;58.80;99566.63;4344703;33;34003;-86
2021/05/25 01:54:18;;;;;;;1.55;1.42;;;;;;;17.77;58.68;99576.09;4333740;33;34451;-86
2021/05/25 01:56:46;;;;;;;2.03;1.58;;;;;;;17.73;58.75;99578.88;4332607;33;34152;-86
2021/05/25 01:59:14;;;;;;;3.85;1.55;;;;;;;17.76;58.51;99582.25;4332610;33;33617;-86
2021/05/25 02:01:42;;;;;;;2.67;1.50;;;;;;;17.81;58.45;99580.34;4344238;33;35035;-85
2021/05/25 02:04:10;;;;;;;2.92;1.65;;;;;;;17.80;58.42;99581.28;4332398;33;34475;-86
2021/05/25 02:06:37;;;;;;;2.22;1.50;;;;;;;17.80;58.28;99591.81;4332475;33;34039;-86
2021/05/25 02:09:06;;;;;;;4.80;1.52;;;;;;;17.77;58.38;99605.03;4344464;33;33611;-86
2021/05/25 02:11:36;;;;;;;2.50;1.45;;;;;;;17.78;58.28;99605.91;4344506;33;33871;-86
2021/05/25 02:14:03;;;;;;;2.35;1.40;;;;;;;17.78;58.26;99587.50;4344197;33;33878;-86
2021/05/25 02:16:31;;;;;;;2.33;1.70;;;;;;;17.81;58.17;99580.34;4344206;33;33846;-86
2021/05/25 02:19:01;;;;;;;4.22;1.50;;;;;;;17.83;58.19;99580.31;4344394;33;34588;-86
2021/05/25 02:21:29;;;;;;;3.97;1.60;;;;;;;17.83;58.23;99582.94;4344686;33;34605;-86
2021/05/25 02:23:57;;;;;;;3.58;1.70;;;;;;;17.80;58.31;99573.38;4344119;33;34432;-85
2021/05/25 02:26:25;;;;;;;1.65;1.45;;;;;;;17.82;58.28;99571.56;4345538;33;33898;-86
2021/05/25 02:28:55;;;;;;;2.15;1.55;;;;;;;17.82;58.39;99566.31;4335277;33;33381;-86
2021/05/25 02:31:23;;;;;;;3.08;1.50;;;;;;;17.85;58.36;99565.34;4346103;33;34236;-86
2021/05/25 02:33:50;;;;;;;3.67;1.90;;;;;;;17.75;58.55;99556.03;4334065;33;34829;-86
2021/05/25 02:36:18;;;;;;;2.97;1.52;;;;;;;17.80;58.46;99568.13;4346145;33;34159;-86
2021/05/25 02:38:47;;;;;;;4.70;1.30;;;;;;;17.78;58.49;99569.91;4334072;33;33413;-86
2021/05/25 02:41:14;;;;;;;3.37;1.80;;;;;;;17.69;58.70;99575.47;4334216;33;34540;-86
2021/05/25 02:43:42;;;;;;;3.72;1.70;;;;;;;17.86;58.46;99578.44;4346074;33;34055;-86
2021/05/25 02:46:10;;;;;;;2.80;1.70;;;;;;;17.83;59.00;99575.06;4346020;33;34713;-86
2021/05/25 02:48:37;;;;;;;3.03;1.73;;;;;;;17.69;59.55;99580.75;4333804;33;34106;-86
2021/05/25 02:51:06;;;;;;;2.00;1.65;;;;;;;17.67;59.75;99593.09;4333934;33;33988;-86
2021/05/25 02:53:34;;;;;;;2.58;1.83;;;;;;;17.54;60.21;99584.72;4333795;33;33775;-86
2021/05/25 02:56:01;;;;;;;2.20;1.85;;;;;;;17.61;59.96;99588.03;4335093;33;34626;-86
2021/05/25 02:58:29;;;;;;;3.47;1.80;;;;;;;17.59;59.92;99584.56;4333862;33;33628;-86
2021/05/25 03:00:57;;;;;;;2.12;1.58;;;;;;;17.49;60.16;99584.00;4346039;33;35204;-86
2021/05/25 03:03:25;;;;;;;2.75;1.70;;;;;;;17.53;60.17;99575.13;4345932;33;34286;-86
2021/05/25 03:05:52;;;;;;;2.85;1.75;;;;;;;17.45;60.39;99570.97;4346044;33;33933;-86
2021/05/25 03:08:20;;;;;;;5.10;2.17;;;;;;;17.50;60.20;99562.03;4345964;33;33425;-86
2021/05/25 03:10:48;;;;;;;1.92;1.65;;;;;;;17.53;60.11;99561.13;4345950;33;34110;-86
2021/05/25 03:13:17;;;;;;;1.80;1.55;;;;;;;17.42;60.40;99553.53;4345960;33;34896;-86
2021/05/25 03:15:48;;;;;;;2.87;1.58;;;;;;;17.46;60.38;99562.19;4345940;33;34217;-86
2021/05/25 03:18:16;;;;;;;6.10;2.00;;;;;;;17.38;60.46;99548.41;4333965;33;34121;-86
2021/05/25 03:20:47;;;;;;;2.20;1.80;;;;;;;17.44;60.45;99553.50;4333683;33;34017;-86
2021/05/25 03:23:15;;;;;;;1.65;1.55;;;;;;;17.35;60.67;99546.75;4345665;33;33882;-86
2021/05/25 03:25:44;;;;;;;2.75;2.03;;;;;;;17.32;60.79;99548.63;4345883;33;33394;-86
2021/05/25 03:28:13;;;;;;;1.70;1.60;;;;;;;17.19;61.18;99539.38;4333692;33;33349;-86
2021/05/25 03:30:42;;;;;;;3.28;2.42;;;;;;;17.21;61.24;99538.44;4345986;33;34244;-86
2021/05/25 03:33:11;;;;;;;7.18;3.05;;;;;;;17.37;60.80;99528.31;4345799;33;35524;-86
2021/05/25 03:35:39;;;;;;;4.47;2.47;;;;;;;17.36;60.95;99531.84;4345638;33;34012;-86
2021/05/25 03:38:06;;;;;;;2.97;2.17;;;;;;;17.22;61.25;99531.41;4333097;33;33662;-86
2021/05/25 03:40:34;;;;;;;3.62;2.30;;;;;;;17.11;61.53;99533.53;4345761;33;34337;-86
2021/05/25 03:43:02;;;;;;;3.45;2.40;;;;;;;16.79;62.66;99548.47;4333391;33;35435;-86
2021/05/25 03:45:30;;;;;;;2.53;2.20;;;;;;;16.67;63.02;99551.44;4345608;33;34134;-86
2021/05/25 03:47:58;;;;;;;3.83;2.33;;;;;;;16.57;63.48;99557.88;4345820;33;34470;-85
2021/05/25 03:50:26;;;;;;;8.23;2.40;;;;;;;16.79;62.86;99566.84;4345564;33;35058;-86
2021/05/25 03:52:55;;;;;;;2.47;1.87;;;;;;;16.86;62.61;99575.41;4345565;33;34348;-86
2021/05/25 04:01:04;;;;;;;4.78;2.20;;;;;;;16.94;62.82;99599.72;4342059;33;33818;-86
2021/05/25 04:03:34;;;;;;;2.40;2.10;;;;;;;17.03;62.76;99593.31;4341558;33;35980;-86
2021/05/25 04:06:02;;;;;;;4.18;2.08;;;;;;;17.08;62.61;99587.03;4333385;33;34083;-86
2021/05/25 04:08:30;;;;;;;2.17;1.80;;;;;;;17.30;62.01;99582.84;4333500;33;33425;-86
2021/05/25 04:10:58;;;;;;;4.22;2.10;;;;;;;17.29;62.22;99585.50;4333390;33;35160;-86
2021/05/25 04:13:25;;;;;;;2.78;2.30;;;;;;;17.34;62.37;99578.34;4333322;33;34381;-86
2021/05/25 04:15:54;;;;;;;3.92;1.90;;;;;;;17.57;61.77;99581.13;4345908;33;33483;-86
2021/05/25 04:18:22;;;;;;;6.12;2.55;;;;;;;17.52;62.06;99583.03;4345327;33;33454;-85
2021/05/25 04:20:50;;;;;;;3.65;2.33;;;;;;;17.47;62.25;99583.16;4333192;33;33889;-85
2021/05/25 04:23:28;;;;;;;2.95;2.33;;;;;;;18.23;60.66;99581.53;4492642;31;172932;-85
2021/05/25 04:25:56;;;;;;;4.62;2.65;;;;;;;18.23;60.66;99581.53;4481287;32;34078;-86
2021/05/25 04:28:24;;;;;;;5.15;2.35;;;;;;;17.72;61.69;99590.31;4481245;32;34166;-85
2021/05/25 04:30:52;;;;;;;4.25;2.50;;;;;;;17.77;61.52;99596.28;4481277;32;34841;-85
2021/05/25 04:33:21;;;;;;;4.60;2.55;;;;;;;17.85;61.15;99600.38;4481307;32;33676;-85
2021/05/25 04:35:48;;;;;;;4.62;2.30;;;;;;;17.94;60.88;99602.72;4481142;32;35056;-85
2021/05/25 04:38:16;;;;;;;5.53;2.35;;;;;;;17.97;60.63;99614.94;4480983;32;33987;-86
2021/05/25 04:40:45;;;;;;;4.07;1.90;;;;;;;18.05;60.59;99619.00;4481227;32;34308;-87
2021/05/25 04:43:13;;;;;;;3.40;1.77;;;;;;;18.05;59.84;99610.25;4468352;32;33816;-87
2021/05/25 04:45:42;;;;;;;2.60;2.10;;;;;;;18.13;59.16;99617.00;4455869;32;32928;-87
2021/05/25 04:48:11;;;;;;;2.92;2.03;;;;;;;18.07;59.46;99618.94;4481312;32;33749;-87
2021/05/25 04:50:40;;;;;;;4.05;1.90;;;;;;;18.16;59.37;99619.50;4481357;32;34445;-88
2021/05/25 04:53:07;;;;;;;4.87;2.25;;;;;;;18.14;59.38;99616.06;4481194;32;33981;-87
2021/05/25 04:55:36;;;;;;;2.85;1.90;;;;;;;18.08;59.28;99616.28;4481148;32;34004;-87
2021/05/25 04:58:04;;;;;;;3.35;1.95;;;;;;;18.24;59.20;99617.47;4468230;32;33855;-87
2021/05/25 05:00:32;;;;;;;3.33;2.10;;;;;;;18.27;59.31;99616.53;4481002;32;34626;-87
2021/05/25 05:03:00;;;;;;;2.92;1.80;;;;;;;18.27;59.46;99627.06;4480908;32;33889;-87
2021/05/25 05:05:28;;;;;;;5.45;2.08;;;;;;;18.26;59.75;99627.94;4468157;32;32766;-87
2021/05/25 05:07:56;;;;;;;4.93;2.28;;;;;;;18.37;59.41;99623.19;4468144;32;33845;-87
2021/05/25 05:10:25;;;;;;;3.17;2.25;;;;;;;18.51;59.30;99614.84;4481435;32;33862;-87
2021/05/25 05:12:52;;;;;;;6.47;2.50;;;;;;;18.15;60.24;99624.84;4468186;32;34582;-87
2021/05/25 05:15:20;;;;;;;2.95;2.30;;;;;;;18.50;59.00;99623.66;4468022;32;33712;-86
2021/05/25 05:17:49;;;;;;;3.37;1.80;;;;;;;18.49;58.90;99637.75;4482191;32;33825;-86
2021/05/25 05:20:17;;;;;;;3.05;1.80;;;;;;;18.46;58.91;99643.97;4480422;32;34427;-86
2021/05/25 05:22:45;;;;;;;3.00;1.75;;;;;;;18.48;58.82;99630.75;4467755;32;33906;-85
2021/05/25 05:25:13;;;;;;;2.35;1.80;;;;;;;18.66;58.49;99638.03;4468106;32;33239;-85
2021/05/25 05:27:41;;;;;;;5.18;2.10;;;;;;;18.62;58.46;99639.03;4481024;32;35245;-86
2021/05/25 05:30:09;;;;;;;7.35;2.40;;;;;;;18.60;58.37;99641.72;4467683;32;34764;-85
2021/05/25 05:32:37;;;;;;;1.80;1.60;;;;;;;18.63;58.61;99651.28;4480565;32;34084;-85
2021/05/25 05:35:07;;;;;;;5.18;2.25;;;;;;;18.64;58.64;99663.53;4470403;32;33531;-85
2021/05/25 05:37:35;;;;;;;3.62;2.10;;;;;;;18.57;59.28;99649.72;4470333;32;33704;-84
2021/05/25 05:40:05;;;;;;;4.03;1.60;;;;;;;18.75;59.14;99649.09;4457029;32;34425;-85
2021/05/25 05:42:49;;;;;;;9.90;1.85;;;;;;;18.95;57.95;99653.62;4458756;32;34698;-86
2021/05/25 05:45:19;;;;;;;3.85;1.67;;;;;;;18.96;57.70;99646.59;4470201;32;33955;-86
2021/05/25 05:47:48;;;;;;;4.05;1.70;;;;;;;19.15;58.00;99632.66;4470684;32;33131;-85
2021/05/25 05:50:17;;;;;;;4.95;1.83;;;;;;;19.17;57.41;99636.09;4471346;32;36337;-86
2021/05/25 05:52:47;;;;;;;5.75;1.83;;;;;;;19.16;57.08;99637.00;4456876;32;34889;-85
2021/05/25 05:55:15;;;;;;;4.05;2.00;;;;;;;19.21;57.80;99632.44;4446183;32;34336;-85
2021/05/25 05:57:43;;;;;;;4.03;1.85;;;;;;;19.21;57.23;99635.06;4468652;32;34882;-85
2021/05/25 06:00:12;;;;;;;2.37;1.70;;;;;;;19.19;57.03;99630.75;4460454;32;35273;-86
2021/05/25 06:02:39;;;;;;;4.18;2.00;;;;;;;19.15;56.98;99643.22;4470727;32;35278;-85
2021/05/25 06:05:08;;;;;;;5.87;5.12;;;;;;;19.41;55.96;99658.09;4464194;32;33315;-87
2021/05/25 06:07:36;;;;;;;4.53;2.28;;;;;;;19.58;57.29;99668.84;4452174;32;33267;-85
2021/05/25 06:10:05;;;;;;;3.25;1.87;;;;;;;19.35;56.41;99674.13;4470813;32;34597;-84
2021/05/25 06:12:33;;;;;;;3.25;1.80;;;;;;;19.54;57.02;99669.88;4469885;32;35650;-87
2021/05/25 06:15:03;;;;;;;5.68;2.15;;;;;;;19.88;55.86;99672.91;4469858;32;33362;-89
2021/05/25 06:17:31;;;;;;;3.22;1.80;;;;;;;19.97;56.04;99682.22;4457213;32;34639;-87
2021/05/25 06:19:59;;;;;;;2.92;2.20;;;;;;;19.47;57.46;99676.28;4470360;32;34415;-87
2021/05/25 06:22:26;;;;;;;3.25;2.25;;;;;;;19.97;55.67;99679.59;4470063;32;34960;-88
2021/05/25 06:24:54;;;;;;;2.45;2.03;;;;;;;19.78;55.02;99691.84;4454414;32;33291;-87
2021/05/25 06:27:22;;;;;;;2.70;2.40;;;;;;;19.91;55.66;99691.28;4466595;32;35195;-86
2021/05/25 06:29:50;;;;;;;6.50;2.83;;;;;;;20.04;55.27;99696.94;4466988;32;34356;-87
2021/05/25 06:32:17;;;;;;;4.35;2.87;;;;;;;20.18;55.70;99707.81;4457056;32;35199;-86
2021/05/25 06:34:47;;;;;;;4.00;2.80;;;;;;;19.86;56.49;99697.66;4456958;32;34580;-86
2021/05/25 06:37:14;;;;;;;3.65;2.97;;;;;;;19.97;56.78;99692.78;4469955;32;34796;-86
2021/05/25 06:39:42;;;;;;;6.28;2.83;;;;;;;20.05;55.97;99699.50;4469755;32;34869;-86
2021/05/25 06:42:11;;;;;;;4.97;2.22;;;;;;;20.23;56.18;99705.84;4469804;32;35140;-85
2021/05/25 06:44:39;;;;;;;6.32;2.97;;;;;;;20.25;56.10;99704.84;4469204;32;32580;-87
2021/05/25 06:47:06;;;;;;;3.60;2.35;;;;;;;20.41;54.86;99705.09;4456658;32;34795;-87
2021/05/25 06:49:35;;;;;;;5.53;2.67;;;;;;;20.33;55.44;99711.59;4457086;32;35738;-88
2021/05/25 06:52:02;;;;;;;4.45;3.10;;;;;;;20.28;55.16;99716.25;4469933;32;34695;-87
2021/05/25 06:54:32;;;;;;;3.62;2.67;;;;;;;19.87;55.32;99704.66;4470230;32;34643;-86
2021/05/25 06:57:01;;;;;;;4.40;2.35;;;;;;;19.97;54.46;99700.72;4440655;32;34517;-86
2021/05/25 06:59:28;;;;;;;2.75;2.22;;;;;;;19.92;55.29;99713.25;4465279;32;34488;-86
2021/05/25 07:01:56;;;;;;;3.60;2.50;;;;;;;19.84;55.99;99704.78;4457419;32;33983;-86
2021/05/25 07:04:24;;;;;;;3.53;2.33;;;;;;;19.96;55.76;99712.22;4469599;32;34532;-86
2021/05/25 07:06:51;;;;;;;4.70;2.55;;;;;;;20.12;55.72;99706.25;4471415;32;33734;-86
2021/05/25 07:09:19;;;;;;;2.60;2.28;;;;;;;20.36;54.66;99716.78;4470467;32;34608;-87
2021/05/25 07:11:47;;;;;;;4.25;2.67;;;;;;;20.41;54.67;99720.09;4454077;32;33355;-86
2021/05/25 07:14:15;;;;;;;3.50;2.58;;;;;;;20.51;53.43;99724.06;4442020;32;33637;-86
2021/05/25 07:16:43;;;;;;;6.00;2.90;;;;;;;20.38;53.55;99728.13;4454211;32;35090;-87
2021/05/25 07:19:11;;;;;;;3.87;2.55;;;;;;;20.52;53.46;99726.63;4457103;32;35608;-86
2021/05/25 07:21:38;;;;;;;4.00;3.05;;;;;;;20.48;54.36;99726.84;4457003;32;34294;-86
2021/05/25 07:24:07;;;;;;;7.43;3.15;;;;;;;20.33;54.64;99736.25;4469919;32;32891;-86
2021/05/25 07:26:35;;;;;;;4.35;3.22;;;;;;;20.34;54.95;99737.09;4470112;32;34779;-86
2021/05/25 07:29:03;;;;;;;6.70;3.40;;;;;;;20.42;54.76;99742.94;4456877;32;35272;-86
2021/05/25 07:31:31;;;;;;;5.22;3.70;;;;;;;20.09;55.79;99745.09;4469901;32;33827;-85
2021/05/25 07:34:00;;;;;;;5.97;3.00;;;;;;;20.14;55.83;99745.78;4452715;32;32956;-84
2021/05/25 07:36:30;;;;;;;7.62;4.07;;;;;;;20.13;56.43;99744.09;4455408;32;34897;-85
2021/05/25 07:38:59;;;;;;;5.10;4.28;;;;;;;19.87;56.81;99757.44;4441300;32;34710;-86
2021/05/25 07:41:28;;;;;;;5.20;4.12;;;;;;;19.62;57.87;99761.91;4441421;32;33586;-85
2021/05/25 07:43:56;;;;;;;7.18;4.40;;;;;;;19.76;57.06;99759.63;4453691;32;32317;-86
2021/05/25 07:46:26;;;;;;;5.15;4.65;;;;;;;19.67;57.73;99765.25;4454081;32;33711;-85
2021/05/25 07:48:54;;;;;;;6.82;4.37;;;;;;;19.29;58.55;99770.13;4453612;32;35795;-85
2021/05/25 07:51:25;;;;;;;6.90;4.35;;;;;;;19.55;58.40;99766.56;4453266;32;33286;-86
2021/05/25 07:53:53;;;;;;;8.05;3.97;;;;;;;19.51;58.40;99771.13;4441096;32;32684;-86
2021/05/25 07:56:21;;;;;;;8.43;4.25;;;;;;;19.63;58.16;99780.34;4433819;32;33076;-86
2021/05/25 07:58:49;;;;;;;5.57;4.35;;;;;;;19.81;57.91;99784.94;4454886;32;34333;-88
2021/05/25 08:01:17;;;;;;;4.62;4.05;;;;;;;19.50;57.51;99774.66;4441016;32;33390;-86
2021/05/25 08:03:46;;;;;;;5.47;3.83;;;;;;;19.41;58.27;99785.53;4428004;32;33445;-86
2021/05/25 08:06:15;;;;;;;7.10;3.90;;;;;;;19.39;58.38;99792.66;4453464;32;32780;-86
2021/05/25 08:08:43;;;;;;;5.32;3.62;;;;;;;19.47;58.03;99795.00;4441271;32;33837;-88
2021/05/25 08:11:13;;;;;;;9.18;4.65;;;;;;;19.29;58.46;99806.19;4453333;32;32728;-87
2021/05/25 08:13:43;;;;;;;5.32;3.55;;;;;;;19.35;57.97;99800.69;4454807;32;33740;-87
2021/05/25 08:16:14;;;;;;;5.32;3.35;;;;;;;19.30;57.46;99810.56;4441133;32;33250;-88
2021/05/25 08:19:07;;;;;;;6.07;3.80;;;;;;;19.01;57.74;99813.31;4441121;32;33992;-88
2021/05/25 08:21:39;;;;;;;7.70;3.95;;;;;;;18.86;58.16;99819.97;4433663;32;33340;-87
2021/05/25 08:24:07;;;;;;;4.87;3.80;;;;;;;18.80;58.15;99828.09;4453266;32;33334;-86
2021/05/25 08:26:36;;;;;;;6.78;3.62;;;;;;;18.74;58.51;99825.66;4428010;32;34267;-87
2021/05/25 08:29:06;;;;;;;5.37;4.00;;;;;;;18.72;57.63;99830.09;4428224;32;34688;-87
2021/05/25 08:31:34;;;;;;;5.05;4.07;;;;;;;18.47;58.98;99844.97;4453284;32;33349;-87
2021/05/25 08:34:02;;;;;;;5.30;4.05;;;;;;;18.60;58.49;99849.81;4440506;32;34155;-87
2021/05/25 08:36:35;;;;;;;5.05;4.28;;;;;;;18.63;58.75;99840.94;4440660;32;33521;-87
2021/05/25 08:39:04;;;;;;;5.93;4.10;;;;;;;18.61;58.73;99845.41;4453164;32;33867;-86
2021/05/25 08:41:35;;;;;;;6.03;3.80;;;;;;;18.74;58.93;99849.34;4441055;32;34095;-87
2021/05/25 08:44:05;;;;;;;4.12;3.20;;;;;;;18.84;57.88;99850.78;4455665;32;32043;-87
2021/05/25 08:46:33;;;;;;;5.50;2.75;;;;;;;18.77;57.67;99851.91;4468479;32;33542;-87
2021/05/25 08:49:03;;;;;;;2.83;2.33;;;;;;;18.74;58.17;99850.22;4468444;32;34515;-88
2021/05/25 08:51:31;;;;;;;5.82;2.00;;;;;;;18.82;57.14;99847.34;4446676;32;33230;-87
2021/05/25 08:54:01;;;;;;;2.20;1.60;;;;;;;19.08;55.61;99860.53;4440015;32;32773;-87
2021/05/25 08:56:31;;;;;;;2.65;1.65;;;;;;;19.08;54.66;99859.66;4452662;32;33073;-88
2021/05/25 08:59:04;;;;;;;3.58;1.65;;;;;;;19.12;55.60;99856.84;4440089;32;33163;-87
2021/05/25 09:01:32;;;;;;;4.50;1.50;;;;;;;18.84;55.56;99862.19;4440032;32;33572;-87
2021/05/25 09:04:07;;;;;;;5.37;1.73;;;;;;;18.85;56.06;99870.97;4452730;32;34242;-88
2021/05/25 09:06:44;;;;;;;7.20;2.03;;;;;;;18.97;55.95;99869.69;4415327;32;33284;-88
2021/05/25 09:09:20;;;;;;;2.75;1.75;;;;;;;18.58;57.06;99874.47;4440927;32;34111;-86
2021/05/25 09:12:07;;;;;;;3.03;2.22;;;;;;;18.68;56.34;99878.56;4430278;32;34254;-87
2021/05/25 09:14:50;;;;;;;2.53;1.92;;;;;;;18.58;56.26;99870.06;4441810;32;32130;-88
2021/05/25 09:17:24;;;;;;;2.47;1.62;;;;;;;18.63;56.05;99872.56;4441858;32;34895;-90
2021/05/25 09:19:54;;;;;;;2.00;1.70;;;;;;;18.70;55.75;99879.34;4441922;32;33960;-86
2021/05/25 09:22:29;;;;;;;2.03;1.60;;;;;;;18.63;56.14;99888.38;4455348;32;33501;-87
2021/05/25 09:25:00;;;;;;;2.87;1.62;;;;;;;18.62;56.31;99882.22;4441838;32;32784;-87
2021/05/25 09:27:37;;;;;;;2.15;1.70;;;;;;;18.52;56.97;99880.78;4429403;32;34247;-85
2021/05/25 09:30:25;;;;;;;2.80;1.80;;;;;;;18.69;56.69;99877.63;4441805;32;33826;-86
2021/05/25 09:33:03;;;;;;;3.83;1.60;;;;;;;18.52;57.24;99879.94;4416831;32;32920;-86
2021/05/25 09:35:34;;;;;;;3.37;1.45;;;;;;;18.68;55.64;99871.50;4454593;32;32903;-87
2021/05/25 09:38:10;;;;;;;3.28;1.70;;;;;;;18.78;56.22;99880.81;4442377;32;33954;-87
2021/05/25 09:40:44;;;;;;;2.67;1.75;;;;;;;18.88;56.62;99884.03;4430169;32;34934;-87
2021/05/25 09:43:24;;;;;;;6.12;1.62;;;;;;;18.79;55.98;99884.31;4442168;32;34230;-86
2021/05/25 09:45:58;;;;;;;3.37;2.00;;;;;;;18.57;56.69;99883.28;4442016;32;32889;-87
2021/05/25 09:48:31;;;;;;;3.85;1.80;;;;;;;18.66;56.87;99881.22;4429207;32;34239;-88
2021/05/25 09:50:59;;;;;;;;;;;;;;;18.59;57.10;99882.31;4454904;32;34810;-87
2021/05/25 09:53:30;;;;;;;4.10;1.48;;;;;;;18.82;56.59;99884.25;4416719;32;35703;-87
2021/05/25 09:56:01;;;;;;;1.90;1.70;;;;;;;18.85;57.09;99894.69;4447618;32;34032;-87
2021/05/25 09:58:32;;;;;;;2.85;1.92;;;;;;;18.74;57.20;99892.38;4444608;32;34683;-87
2021/05/25 10:01:02;;;;;;;3.60;1.80;;;;;;;18.84;56.75;99893.81;4469967;32;34266;-86
2021/05/25 10:03:35;;;;;;;2.03;1.23;;;;;;;18.75;57.61;99898.50;4445091;32;33849;-89
2021/05/25 10:06:05;;;;;;;4.18;1.60;;;;;;;18.48;59.80;99921.31;4457935;32;32784;-88
2021/05/25 10:08:36;;;;;;;3.70;1.20;;;;;;;18.22;58.71;99919.41;4444303;32;32731;-90
2021/05/25 10:11:06;;;;;;;2.00;1.20;;;;;;;17.94;58.09;99918.47;4469967;32;35022;-89
2021/05/25 10:13:35;;;;;;;2.83;1.20;;;;;;;17.64;59.28;99919.31;4444194;32;33684;-89
2021/05/25 10:16:05;;;;;;;1.90;1.30;;;;;;;17.71;59.13;99915.59;4444494;32;33326;-89
2021/05/25 10:18:37;;;;;;;2.20;1.25;;;;;;;17.77;59.03;99915.44;4470489;32;33171;-89
2021/05/25 10:21:09;;;;;;;1.40;1.27;;;;;;;18.03;58.62;99923.47;4439751;32;35374;-89
2021/05/25 10:23:37;;;;;;;2.20;1.20;;;;;;;18.06;57.96;99922.53;4441334;32;33465;-90
2021/05/25 10:26:14;;;;;;;4.65;1.30;;;;;;;17.93;57.76;99916.75;4441698;32;33463;-89
2021/05/25 10:28:54;;;;;;;2.58;1.42;;;;;;;18.35;56.90;99911.16;4442028;32;34497;-88
2021/05/25 10:31:32;;;;;;;1.95;1.40;;;;;;;18.36;57.43;99912.88;4441550;32;34675;-87
2021/05/25 10:34:24;;;;;;;1.65;1.20;;;;;;;18.69;57.13;99909.22;4454250;32;33743;-87
2021/05/25 10:36:57;;;;;;;4.15;1.40;;;;;;;18.88;56.80;99913.88;4441761;32;32358;-88
2021/05/25 10:39:32;;;;;;;3.97;1.10;;;;;;;19.03;56.00;99911.66;4454103;32;33896;-88
2021/05/25 10:42:24;;;;;;;2.42;1.00;;;;;;;19.03;55.09;99909.87;4441655;32;34462;-88
2021/05/25 10:45:04;;;;;;;4.28;1.27;;;;;;;18.91;55.12;99908.53;4454286;32;34373;-87
2021/05/25 10:52:55;;;;;;;1.15;0.98;;;;;;;19.00;53.70;99920.53;4469059;32;33335;-87
2021/05/25 10:55:32;;;;;;;1.98;1.00;;;;;;;18.86;52.99;99915.72;4470571;32;33887;-86
2021/05/25 10:58:28;;;;;;;1.83;0.80;;;;;;;18.53;54.78;99934.31;4469618;32;33807;-87
2021/05/25 11:00:59;;;;;;;0.82;0.70;;;;;;;18.58;54.22;99928.03;4466732;32;33898;-87
2021/05/25 11:03:29;;;;;;;4.07;0.90;;;;;;;18.58;54.40;99942.97;4441446;32;34510;-86
2021/05/25 11:05:59;;;;;;;5.10;0.90;;;;;;;18.67;54.35;99933.00;4441366;32;32783;-87
2021/05/25 11:09:00;;;;;;;1.30;0.88;;;;;;;18.33;54.39;99931.41;4453811;32;32558;-85
2021/05/25 11:11:29;;;;;;;1.40;0.90;;;;;;;18.47;54.44;99939.78;4454143;32;32865;-86
2021/05/25 11:13:58;;;;;;;2.92;1.05;;;;;;;17.93;55.25;99940.44;4428888;32;34465;-88
2021/05/25 11:16:34;;;;;;;1.48;0.90;;;;;;;18.30;54.27;99948.16;4441297;32;33353;-87
2021/05/25 11:19:05;;;;;;;4.20;0.90;;;;;;;18.16;54.75;99951.16;4441413;32;33042;-87
2021/05/25 11:24:44;;;;;;;3.55;0.75;;;;;;;18.00;54.67;99960.41;4458318;32;34358;-87
2021/05/25 11:27:16;;;;;;;2.58;0.62;;;;;;;17.93;55.64;99957.97;4470408;32;33482;-87
2021/05/25 11:29:50;;;;;;;2.83;0.50;;;;;;;17.80;54.92;99962.72;4444029;32;32834;-85
2021/05/25 11:32:26;;;;;;;2.47;0.68;;;;;;;17.78;56.09;99956.63;4455990;32;34525;-87
2021/05/25 11:35:06;;;;;;;1.70;0.75;;;;;;;17.93;54.70;99947.44;4469292;32;35100;-87
2021/05/25 11:37:36;;;;;;;1.00;0.90;;;;;;;18.26;54.94;99944.72;4456730;32;34317;-90
2021/05/25 11:40:08;;;;;;;3.65;0.90;;;;;;;18.32;54.83;99945.47;4444715;32;33673;-88
2021/05/25 11:42:36;;;;;;;1.40;0.70;;;;;;;18.54;54.38;99931.63;4456997;32;33510;-87
2021/05/25 11:45:09;;;;;;;1.23;0.68;;;;;;;18.78;54.01;99938.78;4457001;32;35730;-87
2021/05/25 11:47:37;;;;;;;0.77;0.55;;;;;;;19.00;53.78;99943.38;4455355;32;33878;-87
2021/05/25 11:50:11;;;;;;;1.87;0.90;;;;;;;19.66;52.54;99948.25;4441442;32;34171;-86
2021/05/25 11:52:59;;;;;;;2.15;0.93;;;;;;;19.86;51.15;99940.47;4455434;32;34183;-88
2021/05/25 11:55:29;;;;;;;1.90;0.60;;;;;;;20.10;50.85;99937.81;4444753;32;34361;-87
2021/05/25 11:57:59;;;;;;;2.90;0.80;;;;;;;19.98;50.69;99961.16;4470241;32;33986;-87
2021/05/25 12:00:31;;;;;;;4.35;0.70;;;;;;;19.87;49.00;99964.16;4418577;32;33238;-88
2021/05/25 12:03:02;;;;;;;0.82;0.50;;;;;;;19.97;48.01;99957.63;4457014;32;33187;-87